Time;durP1;ratioP1;P1;durP2;ratioP2;P2;SDS_P1;SDS_P2;PMS_P1;PMS_P2;Temp;Humidity;BMP_temperature;BMP_pressure;BME280_temperature;BME280_humidity;BME280_pressure;Samples;Min_cycle;Max_cycle;Signal;HPM_P1;HPM_P2
2023/05/17 00:00:36;;;;;;;6.80;3.10;;;9.20;96.40;;;;;;5012674;28;20041;-50
2023/05/17 00:03:22;;;;;;;7.35;3.78;;;9.40;96.20;;;;;;5012277;28;20041;-47
2023/05/17 00:06:08;;;;;;;5.15;2.70;;;9.50;96.00;;;;;;5011890;28;20060;-49
2023/05/17 00:08:54;;;;;;;7.43;3.45;;;9.50;96.00;;;;;;5012919;28;20030;-48
2023/05/17 00:11:40;;;;;;;8.55;3.38;;;9.50;96.00;;;;;;5012581;28;20026;-47
2023/05/17 00:14:26;;;;;;;8.90;3.20;;;9.50;96.10;;;;;;5013009;28;20391;-45
2023/05/17 00:17:12;;;;;;;6.03;3.10;;;9.50;96.00;;;;;;5012870;28;20153;-45
2023/05/17 00:19:58;;;;;;;10.85;3.80;;;9.30;96.70;;;;;;5011733;28;20042;-47
2023/05/17 00:22:46;;;;;;;6.95;3.33;;;9.40;96.70;;;;;;5013916;28;20134;-48
2023/05/17 00:25:31;;;;;;;8.00;3.88;;;9.20;97.10;;;;;;5013891;28;20045;-48
2023/05/17 00:28:17;;;;;;;8.43;3.70;;;9.30;97.00;;;;;;5017998;28;20026;-46
2023/05/17 00:31:04;;;;;;;8.20;3.67;;;9.40;96.90;;;;;;5021262;28;20680;-46
2023/05/17 00:33:49;;;;;;;7.32;3.33;;;9.30;96.90;;;;;;5012642;28;20034;-46
2023/05/17 00:36:36;;;;;;;7.20;3.60;;;9.40;97.00;;;;;;5011614;28;20088;-46
2023/05/17 00:39:22;;;;;;;7.55;3.80;;;9.50;97.10;;;;;;5011617;28;20041;-46
2023/05/17 00:42:09;;;;;;;6.03;3.58;;;9.50;96.90;;;;;;5012366;28;20026;-45
2023/05/17 00:44:55;;;;;;;8.45;3.50;;;9.40;97.30;;;;;;4994097;28;20027;-45
2023/05/17 00:47:41;;;;;;;6.70;3.72;;;9.40;97.30;;;;;;5011292;28;20064;-47
2023/05/17 00:50:30;;;;;;;9.23;3.80;;;9.40;97.40;;;;;;5012450;28;20038;-46
2023/05/17 00:53:17;;;;;;;7.03;4.22;;;9.40;97.40;;;;;;5012770;28;20034;-45
2023/05/17 00:56:03;;;;;;;10.82;4.40;;;9.50;97.20;;;;;;5011809;28;20525;-48
2023/05/17 00:58:50;;;;;;;9.13;4.30;;;9.50;97.20;;;;;;5010589;28;20052;-46
2023/05/17 01:01:38;;;;;;;7.70;3.92;;;9.60;96.90;;;;;;5011646;28;20025;-43
2023/05/17 01:04:24;;;;;;;8.32;3.88;;;9.40;97.40;;;;;;5014861;28;20441;-48
2023/05/17 01:07:10;;;;;;;10.45;4.43;;;9.40;97.40;;;;;;5015616;28;20036;-45
2023/05/17 01:09:57;;;;;;;8.50;4.47;;;9.20;98.00;;;;;;5004107;28;20037;-45
2023/05/17 01:12:45;;;;;;;12.25;4.22;;;9.10;98.40;;;;;;5013829;28;20034;-50
2023/05/17 01:15:35;;;;;;;7.20;3.90;;;9.30;98.20;;;;;;5012178;28;20402;-47
2023/05/17 01:18:42;;;;;;;15.20;4.78;;;9.30;97.90;;;;;;5011999;28;20371;-47
2023/05/17 01:21:49;;;;;;;9.10;4.05;;;9.30;98.30;;;;;;5011545;28;20041;-48
2023/05/17 01:24:56;;;;;;;11.30;4.20;;;9.30;98.20;;;;;;5011448;28;20018;-45
2023/05/17 01:27:47;;;;;;;12.05;4.53;;;9.20;99.20;;;;;;5011434;28;20026;-45
2023/05/17 01:30:33;;;;;;;10.13;4.07;;;9.20;99.60;;;;;;5011631;28;20023;-46
2023/05/17 01:33:20;;;;;;;6.40;3.80;;;9.20;99.70;;;;;;5011357;28;20030;-46
2023/05/17 01:36:07;;;;;;;8.25;4.22;;;9.30;99.60;;;;;;4991805;28;20038;-45
2023/05/17 01:38:53;;;;;;;9.65;4.75;;;9.30;99.80;;;;;;5011378;28;20045;-44
2023/05/17 01:41:45;;;;;;;7.53;4.28;;;9.30;99.80;;;;;;5012372;28;20029;-43
2023/05/17 01:44:34;;;;;;;8.18;4.20;;;9.30;99.60;;;;;;5012048;28;20430;-44
2023/05/17 01:47:30;;;;;;;10.20;5.05;;;9.30;99.90;;;;;;5010144;28;20030;-56
2023/05/17 01:50:21;;;;;;;8.68;4.60;;;9.20;99.90;;;;;;5011958;28;20053;-48
2023/05/17 01:53:34;;;;;;;12.10;4.57;;;9.10;99.90;;;;;;5011619;28;20101;-46
2023/05/17 01:56:27;;;;;;;9.20;4.43;;;9.10;99.90;;;;;;5011070;28;20053;-46
2023/05/17 01:59:20;;;;;;;7.93;4.20;;;9.10;99.90;;;;;;5011640;28;20113;-46
2023/05/17 02:02:07;;;;;;;7.70;4.38;;;9.10;99.90;;;;;;5010912;28;20501;-47
2023/05/17 02:04:54;;;;;;;12.73;4.65;;;9.00;99.90;;;;;;5011727;28;20037;-47
2023/05/17 02:07:39;;;;;;;9.60;4.53;;;8.90;99.90;;;;;;5011037;28;20037;-46
2023/05/17 02:10:25;;;;;;;16.48;5.18;;;8.90;99.90;;;;;;5005613;28;20030;-45
2023/05/17 02:13:11;;;;;;;10.85;5.05;;;8.90;99.90;;;;;;5010708;28;20377;-48
2023/05/17 02:16:01;;;;;;;9.88;5.20;;;8.90;99.90;;;;;;5011790;28;20023;-48
2023/05/17 02:18:47;;;;;;;12.20;4.57;;;8.80;99.90;;;;;;5011370;28;20026;-49
2023/05/17 02:21:36;;;;;;;12.85;5.07;;;8.80;99.90;;;;;;5010190;28;20038;-49
2023/05/17 02:24:22;;;;;;;6.90;4.45;;;8.90;99.90;;;;;;4992624;28;20031;-46
2023/05/17 02:27:08;;;;;;;14.60;5.43;;;8.90;99.90;;;;;;4997610;28;20034;-48
2023/05/17 02:29:54;;;;;;;9.57;4.35;;;8.80;99.90;;;;;;5014613;28;20402;-46
2023/05/17 02:32:40;;;;;;;9.05;4.85;;;8.80;99.90;;;;;;5014349;28;20033;-49
2023/05/17 02:35:26;;;;;;;9.35;4.57;;;8.80;99.90;;;;;;5014170;28;20030;-48
2023/05/17 02:38:12;;;;;;;12.35;5.18;;;8.80;99.90;;;;;;5014720;28;20069;-47
2023/05/17 02:40:58;;;;;;;9.95;4.88;;;8.80;99.90;;;;;;5014210;28;20032;-50
2023/05/17 02:43:44;;;;;;;7.90;4.80;;;8.70;99.90;;;;;;5014346;28;20029;-49
2023/05/17 02:46:30;;;;;;;12.95;5.47;;;8.70;99.90;;;;;;5013067;28;20026;-48
2023/05/17 02:49:16;;;;;;;13.45;5.15;;;8.70;99.90;;;;;;4994345;28;20066;-48
2023/05/17 02:52:02;;;;;;;10.48;4.97;;;8.60;99.90;;;;;;4993835;28;20033;-47
2023/05/17 02:54:48;;;;;;;11.07;5.07;;;8.50;99.90;;;;;;5007779;28;20050;-48
2023/05/17 02:57:34;;;;;;;7.25;4.68;;;8.50;99.90;;;;;;4993475;28;20026;-48
2023/05/17 03:00:20;;;;;;;10.13;5.00;;;8.50;99.90;;;;;;4994243;28;20062;-49
2023/05/17 03:03:06;;;;;;;13.10;5.05;;;8.50;99.90;;;;;;5010312;28;20636;-51
2023/05/17 03:05:52;;;;;;;9.57;5.18;;;8.40;99.90;;;;;;5012892;28;20022;-49
2023/05/17 03:08:38;;;;;;;12.35;5.80;;;8.40;99.90;;;;;;5014598;28;20022;-49
2023/05/17 03:11:24;;;;;;;14.75;5.38;;;8.20;99.90;;;;;;5013375;28;20093;-49
2023/05/17 03:14:09;;;;;;;9.57;5.82;;;8.10;99.90;;;;;;4994521;28;20479;-49
2023/05/17 03:16:55;;;;;;;11.07;5.18;;;7.90;99.90;;;;;;4996221;28;20085;-48
2023/05/17 03:19:41;;;;;;;11.15;5.43;;;7.80;99.90;;;;;;5012453;28;20022;-48
2023/05/17 03:22:27;;;;;;;12.50;5.38;;;7.80;99.90;;;;;;5012340;28;20168;-48
2023/05/17 03:25:13;;;;;;;10.52;6.07;;;7.70;99.90;;;;;;5013554;28;20037;-48
2023/05/17 03:27:59;;;;;;;12.90;5.50;;;7.70;99.90;;;;;;5013271;28;20033;-48
2023/05/17 03:30:45;;;;;;;9.27;5.13;;;7.60;99.90;;;;;;5013926;28;20557;-49
2023/05/17 03:33:31;;;;;;;9.95;5.80;;;7.70;99.90;;;;;;5013411;28;20109;-50
2023/05/17 03:36:17;;;;;;;11.60;5.57;;;7.90;99.90;;;;;;5013356;28;20034;-48
2023/05/17 03:39:03;;;;;;;13.23;5.75;;;7.90;99.90;;;;;;4994092;28;20074;-47
2023/05/17 03:41:50;;;;;;;11.15;5.50;;;7.80;99.90;;;;;;4993248;28;20093;-46
2023/05/17 03:44:35;;;;;;;15.73;5.18;;;7.80;99.90;;;;;;4993197;28;20084;-47
2023/05/17 03:47:22;;;;;;;14.05;5.22;;;7.80;99.90;;;;;;4992283;28;20037;-47
2023/05/17 03:50:09;;;;;;;12.90;5.47;;;7.80;99.90;;;;;;4993183;28;20109;-51
2023/05/17 03:52:55;;;;;;;19.45;6.32;;;7.60;99.90;;;;;;5012011;28;20034;-49
2023/05/17 03:55:40;;;;;;;13.18;6.00;;;7.70;99.90;;;;;;5013082;28;20021;-46
2023/05/17 03:58:26;;;;;;;15.02;6.05;;;7.60;99.90;;;;;;5011444;28;20088;-48
2023/05/17 04:01:12;;;;;;;11.25;5.05;;;7.70;99.90;;;;;;5012988;28;20113;-47
2023/05/17 04:04:00;;;;;;;10.20;5.40;;;7.90;99.90;;;;;;4993640;28;20503;-47
2023/05/17 04:06:46;;;;;;;13.10;5.53;;;7.90;99.90;;;;;;4994497;28;20079;-47
2023/05/17 04:09:33;;;;;;;13.45;5.90;;;8.00;99.90;;;;;;5012116;28;20030;-49
2023/05/17 04:12:19;;;;;;;16.80;5.97;;;8.10;99.90;;;;;;5011764;28;20040;-48
2023/05/17 04:15:06;;;;;;;9.32;5.32;;;8.10;99.90;;;;;;5012803;28;20026;-46
2023/05/17 04:17:52;;;;;;;11.25;6.07;;;8.00;99.90;;;;;;5012646;28;20141;-48
2023/05/17 04:20:38;;;;;;;11.48;5.18;;;8.10;99.90;;;;;;5013120;28;20057;-48
2023/05/17 04:23:24;;;;;;;10.88;5.60;;;8.10;99.90;;;;;;5012421;28;20030;-49
2023/05/17 04:26:10;;;;;;;14.15;5.72;;;8.10;99.90;;;;;;5012176;28;20666;-49
2023/05/17 04:28:56;;;;;;;12.80;6.13;;;8.20;99.90;;;;;;4993625;28;20033;-46
2023/05/17 04:31:42;;;;;;;16.42;7.03;;;8.10;99.90;;;;;;4993700;28;20058;-48
2023/05/17 04:34:28;;;;;;;14.25;6.85;;;8.00;99.90;;;;;;5012603;28;20406;-48
2023/05/17 04:37:15;;;;;;;15.70;6.15;;;8.00;99.90;;;;;;5012512;28;20038;-47
2023/05/17 04:40:01;;;;;;;11.70;5.10;;;8.20;99.90;;;;;;5012886;28;20034;-48
2023/05/17 04:42:47;;;;;;;11.20;5.38;;;8.30;99.90;;;;;;5012111;28;20034;-48
2023/05/17 04:45:34;;;;;;;11.00;5.68;;;8.20;99.90;;;;;;5011046;28;20058;-50
2023/05/17 04:48:20;;;;;;;13.77;4.82;;;8.30;99.90;;;;;;5010880;28;20116;-52
2023/05/17 04:51:06;;;;;;;9.55;5.22;;;8.40;99.90;;;;;;5011981;28;20100;-51
2023/05/17 04:53:52;;;;;;;13.88;5.95;;;8.50;99.90;;;;;;5011857;28;20034;-47
2023/05/17 04:56:38;;;;;;;10.98;5.47;;;8.60;99.90;;;;;;5010228;28;20034;-49
2023/05/17 04:59:23;;;;;;;10.68;5.95;;;8.70;99.90;;;;;;5011270;28;20533;-46
2023/05/17 05:02:09;;;;;;;10.48;5.30;;;8.90;99.90;;;;;;5011560;28;20125;-45
2023/05/17 05:04:55;;;;;;;11.80;5.72;;;9.00;99.90;;;;;;5012525;28;20504;-47
2023/05/17 05:07:41;;;;;;;11.18;5.75;;;9.00;99.90;;;;;;5011800;28;20033;-47
2023/05/17 05:10:27;;;;;;;11.30;6.35;;;9.00;99.90;;;;;;5009703;28;20068;-50
2023/05/17 05:13:13;;;;;;;10.18;5.63;;;9.20;99.90;;;;;;5014921;28;20092;-50
2023/05/17 05:15:59;;;;;;;13.45;6.07;;;9.20;99.90;;;;;;5015825;28;20030;-48
2023/05/17 05:18:45;;;;;;;14.68;6.25;;;9.20;99.90;;;;;;5015347;28;20025;-46
2023/05/17 05:21:32;;;;;;;13.32;6.10;;;9.20;99.90;;;;;;5012143;28;20030;-45
2023/05/17 05:24:17;;;;;;;18.15;6.93;;;9.00;99.90;;;;;;5011589;28;20030;-51
2023/05/17 05:27:04;;;;;;;14.10;7.30;;;9.10;99.90;;;;;;5011274;28;20041;-48
2023/05/17 05:29:50;;;;;;;17.15;6.60;;;9.20;99.90;;;;;;5011652;28;20109;-46
2023/05/17 05:32:38;;;;;;;19.02;7.45;;;9.30;99.90;;;;;;5011448;28;20118;-46
2023/05/17 05:35:28;;;;;;;12.75;6.72;;;9.30;99.90;;;;;;5011349;28;20057;-45
2023/05/17 05:38:14;;;;;;;12.60;6.68;;;9.30;99.90;;;;;;5010566;28;20049;-45
2023/05/17 05:41:00;;;;;;;13.68;7.03;;;9.40;99.90;;;;;;5010515;28;20398;-45
2023/05/17 05:43:46;;;;;;;18.13;7.35;;;9.40;99.90;;;;;;5011573;28;20026;-45
2023/05/17 05:46:32;;;;;;;13.55;7.10;;;9.60;99.90;;;;;;5010839;28;20398;-46
2023/05/17 05:49:18;;;;;;;13.45;7.40;;;9.60;99.90;;;;;;4992152;28;20030;-48
2023/05/17 05:52:04;;;;;;;17.45;7.53;;;9.50;99.90;;;;;;4992607;28;20030;-45
2023/05/17 05:54:50;;;;;;;14.75;7.40;;;9.60;99.90;;;;;;5001553;28;20030;-44
2023/05/17 05:57:36;;;;;;;17.92;7.70;;;9.80;99.90;;;;;;5009523;28;20034;-46
2023/05/17 06:00:22;;;;;;;16.48;8.25;;;9.80;99.90;;;;;;5011805;28;20034;-48
2023/05/17 06:03:08;;;;;;;19.27;8.00;;;9.80;99.90;;;;;;5015637;28;20417;-50
2023/05/17 06:05:54;;;;;;;17.88;7.70;;;9.80;99.90;;;;;;5014963;28;20026;-49
2023/05/17 06:08:40;;;;;;;15.15;7.43;;;9.80;99.90;;;;;;5015320;28;20030;-49
2023/05/17 06:11:29;;;;;;;21.58;7.75;;;10.00;99.90;;;;;;5016416;28;20117;-48
2023/05/17 06:14:15;;;;;;;14.10;6.53;;;10.30;99.90;;;;;;5016121;28;20568;-47
2023/05/17 06:17:01;;;;;;;18.10;7.60;;;10.30;99.90;;;;;;5017890;28;20037;-45
2023/05/17 06:19:51;;;;;;;18.13;8.10;;;10.40;99.90;;;;;;5014183;28;20034;-48
2023/05/17 06:22:37;;;;;;;15.10;6.45;;;10.20;99.90;;;;;;5014932;28;20085;-50
2023/05/17 06:25:23;;;;;;;20.40;7.50;;;10.40;99.90;;;;;;5015456;28;20022;-45
2023/05/17 06:28:09;;;;;;;14.68;6.30;;;10.50;99.90;;;;;;5013287;28;20483;-48
2023/05/17 06:30:54;;;;;;;17.80;6.47;;;10.50;99.90;;;;;;5013699;28;20030;-44
2023/05/17 06:33:41;;;;;;;18.85;6.85;;;10.60;99.90;;;;;;5016059;28;20030;-51
2023/05/17 06:36:27;;;;;;;15.63;5.90;;;10.50;99.90;;;;;;5014980;28;20113;-47
2023/05/17 06:39:13;;;;;;;20.45;6.93;;;10.60;99.90;;;;;;4996741;28;20026;-47
2023/05/17 06:42:01;;;;;;;16.27;6.35;;;10.70;99.90;;;;;;4999613;28;20030;-50
2023/05/17 06:44:47;;;;;;;15.60;7.40;;;10.70;99.90;;;;;;5015621;28;20049;-48
2023/05/17 06:47:33;;;;;;;11.15;5.93;;;10.60;99.90;;;;;;5015335;28;20400;-49
2023/05/17 06:50:19;;;;;;;18.33;6.72;;;10.30;99.90;;;;;;5009380;28;20730;-48
2023/05/17 06:53:05;;;;;;;13.15;4.70;;;10.10;99.90;;;;;;4997134;28;20177;-47
2023/05/17 06:55:51;;;;;;;18.13;6.00;;;10.20;99.60;;;;;;5006401;28;20121;-49
2023/05/17 06:58:37;;;;;;;17.20;5.40;;;10.20;99.90;;;;;;5014944;28;20144;-49
2023/05/17 07:01:26;;;;;;;17.98;6.25;;;10.40;99.90;;;;;;5015245;28;20030;-49
2023/05/17 07:04:12;;;;;;;17.33;6.07;;;10.90;99.30;;;;;;5013516;28;20026;-49
2023/05/17 07:06:58;;;;;;;17.75;7.20;;;11.20;98.70;;;;;;5013464;28;20026;-49
2023/05/17 07:09:44;;;;;;;17.80;7.32;;;11.40;97.90;;;;;;4994767;28;20523;-48
2023/05/17 07:12:30;;;;;;;16.30;6.18;;;11.20;98.00;;;;;;4995049;28;20450;-51
2023/05/17 07:15:16;;;;;;;15.55;5.88;;;11.20;98.20;;;;;;4996615;28;20037;-48
2023/05/17 07:18:02;;;;;;;14.35;5.22;;;11.20;98.40;;;;;;5013268;28;20038;-48
2023/05/17 07:20:48;;;;;;;15.27;6.03;;;11.00;97.90;;;;;;5013715;28;20497;-50
2023/05/17 07:23:34;;;;;;;18.90;6.15;;;11.00;98.20;;;;;;5013846;28;20105;-49
2023/05/17 07:26:20;;;;;;;17.92;6.18;;;11.10;98.40;;;;;;5013261;28;20034;-48
2023/05/17 07:29:06;;;;;;;15.52;6.10;;;11.30;98.30;;;;;;4993568;28;20038;-48
2023/05/17 07:31:52;;;;;;;21.75;6.55;;;11.20;98.00;;;;;;4996519;28;20705;-47
2023/05/17 07:34:38;;;;;;;19.92;6.10;;;11.20;98.20;;;;;;5013200;28;20037;-47
2023/05/17 07:37:24;;;;;;;21.63;6.38;;;11.30;98.30;;;;;;5013077;28;20061;-46
2023/05/17 07:40:11;;;;;;;14.73;5.35;;;11.20;98.30;;;;;;5012977;28;20113;-47
2023/05/17 07:42:56;;;;;;;17.30;5.47;;;11.20;98.00;;;;;;5013166;28;20030;-47
2023/05/17 07:45:43;;;;;;;19.35;5.10;;;11.20;98.00;;;;;;5013060;28;20494;-48
2023/05/17 07:48:29;;;;;;;12.90;4.90;;;11.30;97.60;;;;;;5011995;28;20037;-47
2023/05/17 07:51:15;;;;;;;19.38;5.85;;;11.10;97.40;;;;;;5013026;28;20415;-47
2023/05/17 07:54:02;;;;;;;23.25;7.30;;;11.00;97.90;;;;;;5013261;28;20726;-48
2023/05/17 07:56:48;;;;;;;17.23;5.20;;;11.00;97.70;;;;;;5011538;28;20041;-49
2023/05/17 07:59:34;;;;;;;15.77;5.13;;;11.20;97.60;;;;;;5012360;28;20034;-51
2023/05/17 08:02:20;;;;;;;14.80;4.65;;;11.10;96.60;;;;;;5012735;28;20037;-48
2023/05/17 08:05:07;;;;;;;15.38;5.72;;;11.10;97.00;;;;;;5005740;28;20031;-48
2023/05/17 08:07:53;;;;;;;13.75;5.60;;;11.50;97.40;;;;;;4992925;28;20570;-47
2023/05/17 08:10:39;;;;;;;17.45;5.47;;;11.40;97.10;;;;;;4993160;28;20360;-47
2023/05/17 08:13:25;;;;;;;11.13;4.95;;;11.30;96.30;;;;;;4993834;28;20053;-49
2023/05/17 08:16:11;;;;;;;17.73;5.40;;;11.60;95.90;;;;;;4993356;28;20026;-48
2023/05/17 08:18:57;;;;;;;14.57;5.35;;;11.70;94.40;;;;;;4994579;28;20038;-48
2023/05/17 08:21:45;;;;;;;11.75;5.40;;;11.70;94.40;;;;;;4995711;28;20081;-48
2023/05/17 08:24:30;;;;;;;14.10;4.25;;;11.70;93.30;;;;;;5012350;28;20030;-48
2023/05/17 08:27:17;;;;;;;13.82;4.28;;;11.60;93.20;;;;;;5011481;28;20517;-46
2023/05/17 08:30:03;;;;;;;11.00;3.80;;;11.60;94.00;;;;;;5013340;28;20398;-47
2023/05/17 08:32:49;;;;;;;15.10;5.43;;;11.40;94.80;;;;;;5012602;28;20042;-47
2023/05/17 08:35:35;;;;;;;16.63;5.80;;;11.30;95.40;;;;;;5013116;28;20086;-49
2023/05/17 08:38:21;;;;;;;13.43;5.38;;;11.50;95.60;;;;;;5012739;28;20030;-48
2023/05/17 08:41:08;;;;;;;18.45;4.47;;;11.60;95.10;;;;;;5012634;28;20058;-50
2023/05/17 08:43:55;;;;;;;20.48;5.15;;;11.50;95.10;;;;;;5013006;28;20065;-46
2023/05/17 08:46:43;;;;;;;13.63;4.35;;;11.70;95.00;;;;;;5012435;28;20774;-47
2023/05/17 08:49:33;;;;;;;14.02;4.53;;;11.80;94.60;;;;;;5012546;28;20034;-49
2023/05/17 08:52:19;;;;;;;11.00;4.43;;;11.70;94.40;;;;;;5011881;28;20026;-49
2023/05/17 08:55:07;;;;;;;13.30;4.65;;;11.50;95.00;;;;;;5010397;28;20037;-47
2023/05/17 08:57:53;;;;;;;15.13;5.07;;;11.60;94.60;;;;;;5008884;28;20033;-46
2023/05/17 09:00:39;;;;;;;12.70;4.63;;;11.70;94.20;;;;;;4997789;28;20244;-51
2023/05/17 09:03:26;;;;;;;13.75;3.95;;;11.70;93.70;;;;;;5011232;28;20030;-49
2023/05/17 09:06:13;;;;;;;13.45;4.43;;;11.70;93.80;;;;;;5012109;28;20038;-49
2023/05/17 09:09:00;;;;;;;14.63;4.22;;;11.90;92.90;;;;;;4994167;28;20046;-47
2023/05/17 09:11:46;;;;;;;18.55;5.13;;;12.10;92.50;;;;;;4998883;28;20101;-48
2023/05/17 09:14:35;;;;;;;13.30;4.13;;;12.20;91.50;;;;;;5014412;28;20030;-49
2023/05/17 09:17:21;;;;;;;15.80;5.53;;;12.00;91.50;;;;;;5007428;28;20097;-48
2023/05/17 09:20:09;;;;;;;15.30;4.55;;;12.00;92.10;;;;;;4992020;28;20030;-48
2023/05/17 09:22:55;;;;;;;17.88;4.55;;;11.80;92.70;;;;;;4995591;28;20485;-46
2023/05/17 09:25:48;;;;;;;13.63;4.45;;;11.90;92.90;;;;;;5009076;28;20033;-49
2023/05/17 09:28:39;;;;;;;18.10;4.88;;;11.90;91.50;;;;;;5014994;28;20533;-47
2023/05/17 09:31:28;;;;;;;15.80;4.60;;;11.70;91.40;;;;;;5012968;28;20026;-47
2023/05/17 09:34:18;;;;;;;12.75;4.68;;;11.90;90.80;;;;;;5014097;28;20033;-47
2023/05/17 09:37:04;;;;;;;8.82;4.00;;;12.30;90.60;;;;;;5017804;28;20032;-51
2023/05/17 09:39:50;;;;;;;12.70;3.97;;;12.10;90.40;;;;;;5015271;28;20038;-47
2023/05/17 09:42:38;;;;;;;10.90;4.00;;;12.20;91.10;;;;;;5015361;28;20034;-49
2023/05/17 09:45:24;;;;;;;14.30;4.38;;;12.20;91.10;;;;;;5015558;28;20030;-48
2023/05/17 09:48:14;;;;;;;12.57;3.75;;;11.90;91.00;;;;;;5015277;28;20030;-48
2023/05/17 09:51:01;;;;;;;10.93;3.60;;;11.90;90.60;;;;;;5015642;28;20030;-48
2023/05/17 09:53:53;;;;;;;11.18;4.15;;;11.90;90.60;;;;;;5015681;28;20561;-53
2023/05/17 09:56:39;;;;;;;11.98;4.53;;;11.90;91.00;;;;;;5015152;28;20042;-52
2023/05/17 09:59:27;;;;;;;9.27;3.75;;;11.80;91.20;;;;;;5015715;28;20038;-50
2023/05/17 10:02:41;;;;;;;10.20;4.22;;;11.60;91.00;;;;;;5015005;28;20536;-51
2023/05/17 10:05:27;;;;;;;12.63;4.57;;;11.60;91.40;;;;;;5015501;28;20038;-49
2023/05/17 10:08:16;;;;;;;12.10;4.05;;;11.90;90.80;;;;;;5014451;28;20072;-51
2023/05/17 10:11:06;;;;;;;12.90;4.10;;;12.00;90.80;;;;;;5015725;28;20049;-52
2023/05/17 10:14:17;;;;;;;13.50;4.07;;;12.10;89.10;;;;;;5015239;28;20034;-50
2023/05/17 10:17:03;;;;;;;11.77;3.50;;;12.00;90.00;;;;;;5014327;28;20022;-52
2023/05/17 10:19:51;;;;;;;19.98;5.75;;;12.10;90.50;;;;;;5015312;28;20030;-49
2023/05/17 10:22:38;;;;;;;14.45;4.30;;;12.10;89.60;;;;;;5014720;28;20394;-51
2023/05/17 10:25:24;;;;;;;12.98;3.70;;;12.30;87.40;;;;;;5015073;28;20069;-47
2023/05/17 10:28:13;;;;;;;8.38;4.13;;;12.40;86.80;;;;;;5014508;28;20093;-49
2023/05/17 10:31:00;;;;;;;12.88;3.63;;;12.60;85.40;;;;;;5013473;28;20026;-48
2023/05/17 10:33:50;;;;;;;14.48;3.78;;;12.60;87.50;;;;;;5009446;28;20034;-50
2023/05/17 10:36:36;;;;;;;12.75;3.67;;;12.40;88.90;;;;;;5013891;28;20072;-49
2023/05/17 10:39:23;;;;;;;15.23;4.05;;;12.60;86.80;;;;;;5014442;28;20030;-48
2023/05/17 10:42:10;;;;;;;6.32;3.08;;;12.30;85.60;;;;;;5014293;28;20030;-49
2023/05/17 10:44:56;;;;;;;8.07;3.60;;;12.70;87.90;;;;;;5013025;28;20048;-47
2023/05/17 10:47:42;;;;;;;10.75;3.33;;;13.30;88.90;;;;;;5013402;28;20025;-45
2023/05/17 10:50:28;;;;;;;14.65;4.20;;;13.60;84.30;;;;;;5012328;28;20030;-47
2023/05/17 10:53:14;;;;;;;10.02;3.22;;;13.20;86.40;;;;;;5026676;28;20068;-45
2023/05/17 10:56:00;;;;;;;11.45;3.65;;;13.30;87.40;;;;;;5034253;28;20112;-46
2023/05/17 10:58:46;;;;;;;12.10;3.63;;;13.00;84.00;;;;;;5018288;28;20104;-46
2023/05/17 11:01:57;;;;;;;8.98;3.45;;;13.20;82.70;;;;;;5013381;28;20565;-45
2023/05/17 11:04:54;;;;;;;11.85;4.35;;;13.70;82.60;;;;;;5013686;28;20498;-50
2023/05/17 11:07:40;;;;;;;11.73;4.30;;;13.60;83.60;;;;;;5012890;28;20576;-45
2023/05/17 11:10:27;;;;;;;13.30;3.85;;;13.40;85.30;;;;;;5013488;28;20398;-46
2023/05/17 11:13:26;;;;;;;13.00;4.88;;;13.10;85.30;;;;;;5013294;28;20127;-47
2023/05/17 11:16:15;;;;;;;9.88;4.32;;;13.00;85.60;;;;;;5012470;28;20033;-48
2023/05/17 11:19:09;;;;;;;10.88;4.65;;;12.90;85.60;;;;;;5003722;28;20021;-48
2023/05/17 11:21:56;;;;;;;10.32;4.57;;;13.00;85.70;;;;;;5002486;28;20033;-48
2023/05/17 11:24:44;;;;;;;8.20;3.85;;;13.20;85.00;;;;;;4994131;28;20129;-47
2023/05/17 11:27:39;;;;;;;8.18;3.22;;;13.30;82.50;;;;;;4994824;28;20045;-47
2023/05/17 11:30:30;;;;;;;10.60;4.00;;;13.30;82.10;;;;;;4993500;28;20558;-46
2023/05/17 11:33:16;;;;;;;11.88;3.90;;;13.40;84.00;;;;;;4993909;28;20034;-49
2023/05/17 11:36:21;;;;;;;11.30;3.97;;;13.20;83.40;;;;;;5013165;28;20034;-47
2023/05/17 11:39:16;;;;;;;9.95;4.05;;;13.00;85.20;;;;;;5012349;28;20481;-47
2023/05/17 11:42:02;;;;;;;12.18;3.72;;;12.90;85.30;;;;;;5013146;28;20410;-45
2023/05/17 11:44:48;;;;;;;12.40;4.35;;;12.80;85.00;;;;;;5012197;28;20121;-48
2023/05/17 11:47:38;;;;;;;10.73;3.58;;;12.80;84.10;;;;;;5012861;28;20034;-48
2023/05/17 11:50:25;;;;;;;11.07;3.63;;;12.90;82.90;;;;;;5012443;28;20032;-46
2023/05/17 11:53:11;;;;;;;8.60;4.05;;;13.20;83.10;;;;;;4993486;28;20034;-47
2023/05/17 11:56:03;;;;;;;12.32;3.38;;;13.70;81.60;;;;;;4993614;28;20061;-47
2023/05/17 11:58:53;;;;;;;11.07;4.00;;;13.80;82.40;;;;;;4993190;28;20502;-47
2023/05/17 12:01:43;;;;;;;8.55;3.65;;;13.50;83.80;;;;;;4993271;28;20084;-49
2023/05/17 12:04:29;;;;;;;9.73;4.00;;;13.30;82.80;;;;;;4994210;28;20550;-50
2023/05/17 12:07:15;;;;;;;11.02;3.47;;;13.20;82.40;;;;;;4993312;28;20026;-45
2023/05/17 12:10:03;;;;;;;10.38;3.22;;;13.40;81.90;;;;;;5003724;28;20458;-46
2023/05/17 12:12:49;;;;;;;10.40;3.97;;;13.40;81.70;;;;;;5011517;28;20041;-47
2023/05/17 12:15:36;;;;;;;12.13;4.03;;;13.40;81.00;;;;;;5012421;28;20034;-49
2023/05/17 12:18:23;;;;;;;11.57;4.05;;;13.50;81.10;;;;;;5011227;28;20030;-45
2023/05/17 12:21:12;;;;;;;10.73;3.92;;;13.70;82.20;;;;;;5012563;28;20729;-48
2023/05/17 12:23:57;;;;;;;14.30;4.60;;;13.90;81.50;;;;;;5032181;28;20449;-45
2023/05/17 12:26:45;;;;;;;8.82;3.55;;;13.80;80.40;;;;;;5012315;28;20025;-48
2023/05/17 12:29:31;;;;;;;10.32;3.13;;;13.90;80.30;;;;;;5013330;28;20116;-46
2023/05/17 12:32:17;;;;;;;13.00;4.05;;;13.90;81.30;;;;;;5012642;28;20041;-46
2023/05/17 12:35:04;;;;;;;8.45;3.92;;;14.20;80.60;;;;;;5013384;28;20026;-47
2023/05/17 12:37:50;;;;;;;10.73;3.67;;;14.50;79.90;;;;;;5013216;28;20022;-50
2023/05/17 12:40:38;;;;;;;8.20;3.65;;;14.50;78.50;;;;;;5012666;28;20045;-50
2023/05/17 12:43:24;;;;;;;10.15;3.33;;;14.50;78.20;;;;;;5011816;28;20053;-48
2023/05/17 12:46:19;;;;;;;7.57;3.13;;;14.50;77.80;;;;;;4994488;28;20037;-50
2023/05/17 12:49:07;;;;;;;8.38;3.30;;;14.40;77.80;;;;;;4991727;28;20030;-45
2023/05/17 12:51:53;;;;;;;10.18;3.85;;;14.10;78.80;;;;;;4992800;28;20030;-49
2023/05/17 12:54:39;;;;;;;12.13;4.00;;;14.00;80.10;;;;;;4990896;28;20034;-46
2023/05/17 12:57:25;;;;;;;12.00;3.85;;;14.10;80.70;;;;;;4993114;28;20026;-47
2023/05/17 13:00:12;;;;;;;11.32;4.13;;;14.00;79.60;;;;;;4992237;28;20088;-45
2023/05/17 13:02:59;;;;;;;11.20;3.85;;;13.90;80.30;;;;;;4992139;28;20041;-44
2023/05/17 13:05:45;;;;;;;10.30;3.60;;;13.80;80.20;;;;;;4992629;28;20033;-50
2023/05/17 13:08:32;;;;;;;7.68;3.50;;;13.90;78.90;;;;;;4994148;28;20034;-50
2023/05/17 13:11:18;;;;;;;14.05;3.67;;;14.10;79.20;;;;;;5003644;28;20022;-46
2023/05/17 13:14:04;;;;;;;9.88;3.63;;;14.50;77.30;;;;;;5009374;28;20038;-47
2023/05/17 13:16:50;;;;;;;17.92;4.38;;;14.70;77.60;;;;;;5011845;28;20141;-47
2023/05/17 13:19:37;;;;;;;8.10;3.42;;;15.00;76.30;;;;;;5012125;28;20080;-45
2023/05/17 13:22:24;;;;;;;11.48;4.20;;;15.00;77.40;;;;;;5009967;28;20132;-48
2023/05/17 13:25:09;;;;;;;10.98;4.07;;;15.00;76.20;;;;;;5011797;28;20470;-49
2023/05/17 13:27:55;;;;;;;11.63;3.90;;;15.00;77.60;;;;;;5012013;28;20411;-47
2023/05/17 13:30:48;;;;;;;12.68;4.15;;;15.30;76.60;;;;;;5010850;28;20025;-48
2023/05/17 13:33:34;;;;;;;7.28;3.80;;;15.40;75.90;;;;;;5011311;28;20113;-47
2023/05/17 13:36:20;;;;;;;10.05;3.63;;;15.50;76.00;;;;;;5011578;28;20038;-47
2023/05/17 13:39:06;;;;;;;13.77;4.22;;;15.60;75.50;;;;;;5012086;28;20088;-46
2023/05/17 13:41:52;;;;;;;14.55;4.00;;;15.60;75.60;;;;;;5001256;28;20029;-46
2023/05/17 13:44:38;;;;;;;11.57;3.60;;;15.30;76.10;;;;;;5012419;28;20022;-48
2023/05/17 13:47:25;;;;;;;13.57;3.97;;;15.20;76.10;;;;;;5011992;28;20014;-49
2023/05/17 13:50:11;;;;;;;9.90;3.95;;;15.30;75.50;;;;;;5012651;28;20088;-47
2023/05/17 13:52:57;;;;;;;12.02;3.75;;;15.50;75.40;;;;;;5012296;28;20026;-47
2023/05/17 13:55:43;;;;;;;10.13;3.67;;;16.00;75.40;;;;;;5013016;28;20569;-46
2023/05/17 13:58:29;;;;;;;9.43;4.00;;;15.60;74.10;;;;;;5011650;28;20049;-46
2023/05/17 14:01:17;;;;;;;9.40;3.78;;;15.40;74.50;;;;;;5012111;28;20030;-48
2023/05/17 14:04:03;;;;;;;8.07;3.40;;;15.40;74.40;;;;;;5010492;28;20026;-53
2023/05/17 14:06:52;;;;;;;8.55;3.67;;;15.30;76.00;;;;;;4992090;28;20031;-57
2023/05/17 14:09:39;;;;;;;12.30;3.90;;;15.40;76.70;;;;;;5004946;28;20109;-51
2023/05/17 14:12:24;;;;;;;9.23;3.67;;;15.50;77.00;;;;;;4977842;28;20458;-52
2023/05/17 14:15:10;;;;;;;11.23;4.03;;;15.70;76.10;;;;;;4992085;28;20462;-52
2023/05/17 14:17:59;;;;;;;12.02;4.57;;;15.80;75.80;;;;;;4992210;28;20058;-48
2023/05/17 14:20:46;;;;;;;11.55;4.30;;;15.90;74.40;;;;;;5005623;28;20380;-47
2023/05/17 14:23:33;;;;;;;21.42;6.25;;;15.80;74.10;;;;;;5001779;28;20045;-46
2023/05/17 14:26:20;;;;;;;10.45;4.00;;;15.70;77.80;;;;;;5013522;28;20097;-48